Time;durP1;ratioP1;P1;durP2;ratioP2;P2;SDS_P1;SDS_P2;PMS_P1;PMS_P2;Temp;Humidity;BMP_temperature;BMP_pressure;BME280_temperature;BME280_humidity;BME280_pressure;Samples;Min_cycle;Max_cycle;Signal;HPM_P1;HPM_P2
2024/01/26 00:00:52;;;;;;;;;;;;;;;21.70;34.98;102217.53;5037285;28;19913;-73
2024/01/26 00:03:17;;;;;;;;;;;;;;;21.70;34.91;102214.81;5038737;28;19957;-73
2024/01/26 00:05:42;;;;;;;;;;;;;;;21.67;35.12;102209.75;5039168;28;19919;-73
2024/01/26 00:08:08;;;;;;;;;;;;;;;21.63;34.82;102206.50;5047577;28;19913;-73
2024/01/26 00:10:33;;;;;;;;;;;;;;;21.62;35.20;102210.22;5048726;28;19913;-73
2024/01/26 00:12:58;;;;;;;;;;;;;;;21.62;35.21;102214.75;5044978;28;19921;-74
2024/01/26 00:15:23;;;;;;;;;;;;;;;21.60;35.09;102214.06;5038271;28;19920;-73
2024/01/26 00:17:49;;;;;;;;;;;;;;;21.59;35.08;102215.06;5035223;28;20523;-73
2024/01/26 00:20:14;;;;;;;;;;;;;;;21.58;35.24;102211.53;5037274;28;19913;-74
2024/01/26 00:22:39;;;;;;;;;;;;;;;21.56;34.95;102210.81;5037895;28;19944;-72
2024/01/26 00:25:04;;;;;;;;;;;;;;;21.55;35.22;102214.53;5041318;28;19975;-73
2024/01/26 00:27:30;;;;;;;;;;;;;;;21.53;35.05;102205.69;5039419;28;19913;-73
2024/01/26 00:29:55;;;;;;;;;;;;;;;21.51;35.15;102196.91;5036395;28;20363;-73
2024/01/26 00:32:20;;;;;;;;;;;;;;;21.50;35.31;102194.34;5035766;28;20958;-74
2024/01/26 00:34:45;;;;;;;;;;;;;;;21.50;35.05;102188.94;5040119;28;19951;-73
2024/01/26 00:37:10;;;;;;;;;;;;;;;21.49;35.38;102182.66;5052463;28;19927;-74
2024/01/26 00:39:35;;;;;;;;;;;;;;;21.48;35.43;102183.66;5051260;28;19913;-72
2024/01/26 00:42:01;;;;;;;;;;;;;;;21.47;35.46;102181.97;5048614;28;19914;-72
2024/01/26 00:44:26;;;;;;;;;;;;;;;21.43;35.16;102186.84;5044840;28;19956;-72
2024/01/26 00:46:51;;;;;;;;;;;;;;;21.43;35.49;102178.72;5038940;28;19924;-71
2024/01/26 00:49:16;;;;;;;;;;;;;;;21.41;35.28;102178.03;5038556;28;19935;-72
2024/01/26 00:51:41;;;;;;;;;;;;;;;21.39;35.58;102171.91;5037870;28;19923;-73
2024/01/26 00:54:07;;;;;;;;;;;;;;;21.38;35.48;102167.53;5041480;28;19976;-73
2024/01/26 00:56:32;;;;;;;;;;;;;;;21.37;35.52;102173.94;5040346;28;19928;-73
2024/01/26 00:58:57;;;;;;;;;;;;;;;21.36;35.55;102177.63;5047303;28;19917;-73
2024/01/26 01:01:23;;;;;;;;;;;;;;;21.33;35.58;102166.28;5040832;28;19922;-73
2024/01/26 01:03:49;;;;;;;;;;;;;;;21.33;35.53;102172.56;5039914;28;20617;-73
2024/01/26 01:06:14;;;;;;;;;;;;;;;21.30;35.53;102161.16;5036501;28;19913;-73
2024/01/26 01:08:39;;;;;;;;;;;;;;;21.30;35.44;102167.41;5033726;28;19925;-73
2024/01/26 01:11:06;;;;;;;;;;;;;;;21.30;35.69;102175.53;5048666;28;19913;-72
2024/01/26 01:13:31;;;;;;;;;;;;;;;21.29;35.63;102175.69;5039770;28;19917;-73
2024/01/26 01:15:56;;;;;;;;;;;;;;;21.28;35.63;102165.84;5035192;28;19927;-72
2024/01/26 01:18:21;;;;;;;;;;;;;;;21.26;35.53;102171.41;5039544;28;19913;-73
2024/01/26 01:20:46;;;;;;;;;;;;;;;21.26;35.78;102166.00;5043016;28;19913;-72
2024/01/26 01:23:12;;;;;;;;;;;;;;;21.25;35.76;102152.66;5042035;28;19928;-72
2024/01/26 01:25:37;;;;;;;;;;;;;;;21.25;35.66;102152.66;5039632;28;19913;-72
2024/01/26 01:28:03;;;;;;;;;;;;;;;21.22;35.73;102159.22;5038556;28;19917;-72
2024/01/26 01:30:28;;;;;;;;;;;;;;;21.21;35.78;102171.03;5036362;28;19921;-73
2024/01/26 01:32:54;;;;;;;;;;;;;;;21.20;35.55;102153.97;5037583;28;19913;-73
2024/01/26 01:35:20;;;;;;;;;;;;;;;21.20;35.50;102162.06;5056046;28;19939;-73
2024/01/26 01:37:45;;;;;;;;;;;;;;;21.18;35.76;102160.53;5042090;28;19917;-72
2024/01/26 01:40:11;;;;;;;;;;;;;;;21.18;35.78;102144.28;5036385;28;19924;-73
2024/01/26 01:42:36;;;;;;;;;;;;;;;21.17;35.58;102148.00;5034917;28;19913;-72
2024/01/26 01:45:01;;;;;;;;;;;;;;;21.16;35.83;102143.59;5034255;28;19913;-73
2024/01/26 01:47:27;;;;;;;;;;;;;;;21.16;35.65;102146.31;5042990;28;19923;-72
2024/01/26 01:49:52;;;;;;;;;;;;;;;21.14;35.68;102146.44;5046106;28;19926;-73
2024/01/26 01:52:17;;;;;;;;;;;;;;;21.13;35.93;102152.03;5042581;28;19913;-72
2024/01/26 01:54:43;;;;;;;;;;;;;;;21.12;35.74;102143.06;5039206;28;19917;-72
2024/01/26 01:57:09;;;;;;;;;;;;;;;21.11;35.82;102132.38;5040560;28;19994;-73
2024/01/26 01:59:35;;;;;;;;;;;;;;;21.10;35.80;102136.09;5035677;28;19963;-72
2024/01/26 02:02:00;;;;;;;;;;;;;;;21.09;35.61;102137.09;5037100;28;19917;-72
2024/01/26 02:04:25;;;;;;;;;;;;;;;21.07;35.87;102144.50;5035893;28;19920;-73
2024/01/26 02:06:57;;;;;;;;;;;;;;;21.05;36.06;102136.56;5035484;28;19913;-72
2024/01/26 02:09:22;;;;;;;;;;;;;;;21.04;36.07;102132.16;5039880;28;19922;-72
2024/01/26 02:11:47;;;;;;;;;;;;;;;21.05;35.92;102130.28;5038246;28;19921;-72
2024/01/26 02:14:12;;;;;;;;;;;;;;;21.04;35.86;102128.59;5034229;28;20969;-73
2024/01/26 02:16:38;;;;;;;;;;;;;;;21.04;35.74;102139.41;5040361;28;19920;-73
2024/01/26 02:19:03;;;;;;;;;;;;;;;21.00;35.90;102135.31;5033260;28;19920;-72
2024/01/26 02:21:28;;;;;;;;;;;;;;;21.01;35.93;102131.59;5039480;28;19975;-73
2024/01/26 02:23:53;;;;;;;;;;;;;;;21.00;36.07;102119.09;5046108;28;19923;-73
2024/01/26 02:26:18;;;;;;;;;;;;;;;20.97;36.06;102106.72;5039407;28;20000;-69
2024/01/26 02:28:44;;;;;;;;;;;;;;;20.95;35.94;102106.88;5033569;28;20334;-69
2024/01/26 02:31:09;;;;;;;;;;;;;;;20.94;35.86;102097.09;5037974;28;19917;-69
2024/01/26 02:33:34;;;;;;;;;;;;;;;20.94;36.10;102090.78;5036352;28;19912;-70
2024/01/26 02:35:59;;;;;;;;;;;;;;;20.92;35.98;102074.75;5035610;28;19928;-69
2024/01/26 02:38:24;;;;;;;;;;;;;;;20.91;36.04;102069.50;5033372;28;19924;-69
2024/01/26 02:40:49;;;;;;;;;;;;;;;20.91;36.12;102047.88;5033925;28;19964;-69
2024/01/26 02:43:15;;;;;;;;;;;;;;;20.90;36.10;102059.69;5036591;28;19913;-69
2024/01/26 02:45:46;;;;;;;;;;;;;;;20.88;35.93;102040.06;5054693;28;19909;-69
2024/01/26 02:48:11;;;;;;;;;;;;;;;20.88;36.27;102042.75;5047949;28;19920;-69
2024/01/26 02:50:36;;;;;;;;;;;;;;;20.86;36.00;102045.63;5046626;28;19913;-69
2024/01/26 02:53:01;;;;;;;;;;;;;;;20.85;36.17;102040.38;5034806;28;19971;-69
2024/01/26 02:55:26;;;;;;;;;;;;;;;20.85;35.94;102037.66;5039008;28;20543;-69
2024/01/26 02:57:51;;;;;;;;;;;;;;;20.83;36.16;102029.72;5039154;28;20318;-69
2024/01/26 03:00:17;;;;;;;;;;;;;;;20.84;36.24;102027.84;5039150;28;19917;-69
2024/01/26 03:02:42;;;;;;;;;;;;;;;20.82;36.20;102032.59;5038610;28;19921;-69
2024/01/26 03:05:07;;;;;;;;;;;;;;;20.81;36.25;102015.50;5037124;28;20275;-69
2024/01/26 03:07:33;;;;;;;;;;;;;;;20.80;36.08;102021.91;5044973;28;19913;-69
2024/01/26 03:09:58;;;;;;;;;;;;;;;20.79;36.18;102019.38;5035731;28;19925;-69
2024/01/26 03:12:23;;;;;;;;;;;;;;;20.79;36.32;102011.25;5036687;28;19913;-69
2024/01/26 03:14:50;;;;;;;;;;;;;;;20.78;36.08;102007.72;5033007;28;19913;-69
2024/01/26 03:17:15;;;;;;;;;;;;;;;20.77;36.30;102002.44;5036726;28;20425;-69
2024/01/26 03:19:40;;;;;;;;;;;;;;;20.77;36.25;101994.34;5035920;28;19993;-73
2024/01/26 03:22:06;;;;;;;;;;;;;;;20.76;36.36;101989.94;5033696;28;19924;-72
2024/01/26 03:24:31;;;;;;;;;;;;;;;20.74;36.17;101984.69;5033668;28;20011;-72
2024/01/26 03:26:56;;;;;;;;;;;;;;;20.72;36.07;101981.28;5036771;28;19916;-73
2024/01/26 03:29:22;;;;;;;;;;;;;;;20.71;36.31;101975.03;5045733;28;19921;-72
2024/01/26 03:31:47;;;;;;;;;;;;;;;20.70;36.51;101964.38;5047090;28;20377;-72
2024/01/26 03:34:12;;;;;;;;;;;;;;;20.68;36.35;101953.72;5049125;28;20442;-73
2024/01/26 03:36:38;;;;;;;;;;;;;;;20.69;36.31;101949.19;5046936;28;19992;-73
2024/01/26 03:39:03;;;;;;;;;;;;;;;20.68;36.22;101950.16;5037359;28;20295;-73
2024/01/26 03:41:29;;;;;;;;;;;;;;;20.66;36.22;101936.81;5049643;28;19947;-73
2024/01/26 03:43:54;;;;;;;;;;;;;;;20.66;36.19;101930.56;5044386;28;19913;-73
2024/01/26 03:46:20;;;;;;;;;;;;;;;20.63;36.52;101934.41;5040574;28;19914;-73
2024/01/26 03:48:45;;;;;;;;;;;;;;;20.63;36.58;101925.47;5041240;28;19970;-73
2024/01/26 03:51:11;;;;;;;;;;;;;;;20.63;36.28;101920.91;5035724;28;19929;-69
2024/01/26 03:53:36;;;;;;;;;;;;;;;20.62;36.42;101940.00;5041457;28;19960;-69
2024/01/26 03:56:01;;;;;;;;;;;;;;;20.62;36.33;101931.88;5045167;28;19940;-69
2024/01/26 03:58:26;;;;;;;;;;;;;;;20.60;36.54;101934.75;5054423;28;20261;-69
2024/01/26 04:00:51;;;;;;;;;;;;;;;20.59;36.63;101933.03;5048639;28;19913;-69
2024/01/26 04:03:17;;;;;;;;;;;;;;;20.59;36.37;101911.41;5046927;28;19939;-69
2024/01/26 04:05:42;;;;;;;;;;;;;;;20.57;36.48;101902.63;5042568;28;19921;-69
2024/01/26 04:08:08;;;;;;;;;;;;;;;20.56;36.51;101897.38;5041037;28;19917;-69
2024/01/26 04:10:33;;;;;;;;;;;;;;;20.55;36.40;101907.31;5042557;28;19923;-70
2024/01/26 04:12:58;;;;;;;;;;;;;;;20.55;36.49;101901.06;5040642;28;19917;-68
2024/01/26 04:15:23;;;;;;;;;;;;;;;20.53;36.37;101890.44;5039553;28;20932;-69
2024/01/26 04:17:48;;;;;;;;;;;;;;;20.52;36.76;101877.94;5051165;28;19974;-69
2024/01/26 04:20:14;;;;;;;;;;;;;;;20.52;36.69;101877.06;5045814;28;19917;-69
2024/01/26 04:22:39;;;;;;;;;;;;;;;20.50;36.63;101866.44;5040092;28;19913;-69
2024/01/26 04:25:04;;;;;;;;;;;;;;;20.49;36.72;101869.28;5043141;28;19956;-69
2024/01/26 04:27:30;;;;;;;;;;;;;;;20.49;36.59;101867.44;5032983;28;19913;-69
2024/01/26 04:29:55;;;;;;;;;;;;;;;20.48;36.68;101860.34;5057776;28;19917;-69
2024/01/26 04:32:20;;;;;;;;;;;;;;;20.47;36.73;101859.47;5053950;28;19913;-69
2024/01/26 04:34:46;;;;;;;;;;;;;;;20.46;36.73;101856.91;5040587;28;19966;-69
2024/01/26 04:37:11;;;;;;;;;;;;;;;20.46;36.87;101865.00;5039016;28;19964;-69
2024/01/26 04:39:36;;;;;;;;;;;;;;;20.44;36.93;101850.81;5043427;28;19918;-69
2024/01/26 04:42:02;;;;;;;;;;;;;;;20.44;37.12;101858.94;5040037;28;20501;-70
2024/01/26 04:44:27;;;;;;;;;;;;;;;20.43;36.99;101847.28;5037835;28;19920;-69
2024/01/26 04:46:55;;;;;;;;;;;;;;;18.40;36.75;101519.69;5043685;28;19922;-69
2024/01/26 04:49:20;;;;;;;;;;;;;;;20.41;36.73;101843.88;5037313;28;20206;-69
2024/01/26 04:51:45;;;;;;;;;;;;;;;20.41;37.05;101834.91;5037535;28;19924;-69
2024/01/26 04:54:10;;;;;;;;;;;;;;;20.40;36.79;101836.78;5052982;28;19917;-69
2024/01/26 04:56:35;;;;;;;;;;;;;;;20.39;36.84;101818.00;5049105;28;19917;-72
2024/01/26 04:59:01;;;;;;;;;;;;;;;20.38;37.14;101811.75;5041505;28;19963;-72
2024/01/26 05:01:26;;;;;;;;;;;;;;;20.37;37.30;101810.06;5035524;28;20570;-72
2024/01/26 05:03:51;;;;;;;;;;;;;;;20.35;36.83;101814.78;5039012;28;19913;-72
2024/01/26 05:06:16;;;;;;;;;;;;;;;20.36;36.89;101819.19;5038087;28;20290;-72
2024/01/26 05:08:42;;;;;;;;;;;;;;;20.34;37.06;101815.78;5043284;28;20290;-73
2024/01/26 05:11:07;;;;;;;;;;;;;;;20.33;37.02;101814.09;5044751;28;19979;-73
2024/01/26 05:13:32;;;;;;;;;;;;;;;20.33;37.06;101813.25;5038835;28;19953;-74
2024/01/26 05:15:57;;;;;;;;;;;;;;;20.32;37.43;101809.69;5042158;28;20556;-75
2024/01/26 05:18:23;;;;;;;;;;;;;;;20.32;37.06;101808.84;5035129;28;19922;-74
2024/01/26 05:20:48;;;;;;;;;;;;;;;20.30;37.41;101790.09;5036403;28;19921;-73
2024/01/26 05:23:13;;;;;;;;;;;;;;;20.30;37.30;101789.25;5041555;28;19917;-76
2024/01/26 05:25:38;;;;;;;;;;;;;;;20.30;37.54;101791.94;5031542;28;19913;-74
2024/01/26 05:28:04;;;;;;;;;;;;;;;20.29;37.71;101795.66;5040613;28;19948;-75
2024/01/26 05:30:31;;;;;;;;;;;;;;;20.27;37.54;101795.81;5034627;28;19927;-74
2024/01/26 05:32:56;;;;;;;;;;;;;;;20.27;37.87;101795.81;5037337;28;19917;-75
2024/01/26 05:35:21;;;;;;;;;;;;;;;20.26;37.88;101796.78;5037163;28;20362;-74
2024/01/26 05:37:46;;;;;;;;;;;;;;;20.26;37.69;101783.28;5037657;28;20459;-75
2024/01/26 05:40:12;;;;;;;;;;;;;;;20.25;37.90;101780.75;5046760;28;20562;-74
2024/01/26 05:42:37;;;;;;;;;;;;;;;20.24;37.78;101769.13;5047546;28;19940;-77
2024/01/26 05:45:03;;;;;;;;;;;;;;;20.26;37.98;101758.16;5042057;28;19917;-73
2024/01/26 05:47:28;;;;;;;;;;;;;;;20.25;38.22;101753.75;5039603;28;19917;-73
2024/01/26 05:49:53;;;;;;;;;;;;;;;20.24;38.61;101744.81;5034691;28;20381;-72
2024/01/26 05:52:18;;;;;;;;;;;;;;;20.26;38.48;101736.53;5034574;28;19913;-72
2024/01/26 05:54:43;;;;;;;;;;;;;;;20.25;38.57;101741.09;5033503;28;20381;-72
2024/01/26 05:57:09;;;;;;;;;;;;;;;20.24;38.87;101734.00;5033826;28;19918;-72
2024/01/26 05:59:37;;;;;;;;;;;;;;;20.25;38.87;101718.66;5043021;28;19975;-73
2024/01/26 06:02:03;;;;;;;;;;;;;;;20.24;38.80;101723.22;5037712;28;19939;-71
2024/01/26 06:04:28;;;;;;;;;;;;;;;20.23;38.83;101716.13;5047521;28;19917;-72
2024/01/26 06:06:53;;;;;;;;;;;;;;;20.22;39.03;101704.47;5047923;28;19959;-73
2024/01/26 06:09:19;;;;;;;;;;;;;;;20.22;38.93;101696.38;5041073;28;19921;-74
2024/01/26 06:11:44;;;;;;;;;;;;;;;20.22;39.01;101693.69;5036869;28;19913;-73
2024/01/26 06:14:09;;;;;;;;;;;;;;;20.23;39.28;101692.66;5039245;28;20119;-73
2024/01/26 06:16:35;;;;;;;;;;;;;;;20.22;39.11;101704.47;5037534;28;19922;-72
2024/01/26 06:19:00;;;;;;;;;;;;;;;20.22;39.46;101698.22;5038352;28;19920;-73
2024/01/26 06:21:25;;;;;;;;;;;;;;;20.22;39.30;101715.28;5038863;28;20031;-73
2024/01/26 06:23:50;;;;;;;;;;;;;;;20.21;39.23;101710.00;5034160;28;19955;-71
2024/01/26 06:26:15;;;;;;;;;;;;;;;20.21;39.61;101701.91;5047589;28;19917;-72
2024/01/26 06:28:41;;;;;;;;;;;;;;;20.21;39.46;101702.75;5037420;28;20027;-72
2024/01/26 06:31:06;;;;;;;;;;;;;;;20.22;39.33;101695.53;5034653;28;19976;-72
2024/01/26 06:33:31;;;;;;;;;;;;;;;20.20;39.34;101689.44;5035415;28;19921;-74
2024/01/26 06:35:58;;;;;;;;;;;;;;;20.19;39.67;101693.97;5021926;28;19963;-74
2024/01/26 06:38:23;;;;;;;;;;;;;;;20.18;39.50;101686.91;5048992;28;19921;-74
2024/01/26 06:40:48;;;;;;;;;;;;;;;20.18;39.72;101688.75;5033598;28;19913;-73
2024/01/26 06:43:16;;;;;;;;;;;;;;;20.17;39.47;101682.47;5034221;28;19924;-74
2024/01/26 06:45:41;;;;;;;;;;;;;;;20.16;39.65;101677.25;5035837;28;19924;-73
2024/01/26 06:48:06;;;;;;;;;;;;;;;20.15;39.63;101671.00;5037872;28;20418;-75
2024/01/26 06:50:33;;;;;;;;;;;;;;;20.15;39.54;101679.09;5035560;28;19917;-72
2024/01/26 06:52:58;;;;;;;;;;;;;;;20.15;39.67;101675.56;5043464;28;19932;-74
2024/01/26 06:55:24;;;;;;;;;;;;;;;20.14;39.79;101676.56;5043679;28;20007;-72
2024/01/26 06:57:49;;;;;;;;;;;;;;;20.14;39.80;101665.78;5034306;28;20385;-74
2024/01/26 07:00:14;;;;;;;;;;;;;;;20.12;39.79;101652.41;5035338;28;19956;-74
2024/01/26 07:02:39;;;;;;;;;;;;;;;20.12;39.96;101665.06;5046187;28;20274;-73
2024/01/26 07:05:05;;;;;;;;;;;;;;;20.11;39.81;101657.97;5031078;28;20587;-74
2024/01/26 07:07:30;;;;;;;;;;;;;;;20.11;39.88;101657.97;5034358;28;19913;-75
2024/01/26 07:09:55;;;;;;;;;;;;;;;20.10;39.70;101659.84;5034279;28;20003;-73
2024/01/26 07:12:21;;;;;;;;;;;;;;;20.10;39.74;101662.53;5038444;28;19924;-74
2024/01/26 07:14:46;;;;;;;;;;;;;;;20.10;39.93;101645.50;5035578;28;19917;-74
2024/01/26 07:17:11;;;;;;;;;;;;;;;20.09;40.01;101663.56;5048584;28;19948;-74
2024/01/26 07:19:36;;;;;;;;;;;;;;;20.07;39.99;101660.16;5042619;28;19917;-74
2024/01/26 07:22:01;;;;;;;;;;;;;;;20.06;40.10;101650.38;5036413;28;19917;-73
2024/01/26 07:24:26;;;;;;;;;;;;;;;20.05;40.25;101650.50;5036126;28;19923;-74
2024/01/26 07:26:52;;;;;;;;;;;;;;;20.05;40.02;101655.91;5032516;28;19917;-74
2024/01/26 07:29:17;;;;;;;;;;;;;;;20.04;40.25;101659.59;5032774;28;20003;-73
2024/01/26 07:31:44;;;;;;;;;;;;;;;20.03;40.43;101655.22;5033349;28;19989;-75
2024/01/26 07:34:09;;;;;;;;;;;;;;;20.02;40.49;101651.69;5030656;28;19928;-77
2024/01/26 07:36:36;;;;;;;;;;;;;;;20.03;40.05;101647.97;5043517;28;20004;-76
2024/01/26 07:39:02;;;;;;;;;;;;;;;20.04;40.35;101649.66;5033562;28;19941;-75
2024/01/26 07:41:27;;;;;;;;;;;;;;;20.04;40.17;101644.25;5034204;28;19913;-75
2024/01/26 07:43:52;;;;;;;;;;;;;;;20.05;40.40;101647.81;5033331;28;19956;-75
2024/01/26 07:46:18;;;;;;;;;;;;;;;20.05;40.29;101650.50;5033539;28;19917;-76
2024/01/26 07:48:43;;;;;;;;;;;;;;;20.04;40.17;101646.94;5048509;28;19917;-77
2024/01/26 07:51:08;;;;;;;;;;;;;;;20.05;40.35;101645.97;5047617;28;19924;-77
2024/01/26 07:53:33;;;;;;;;;;;;;;;20.04;40.03;101646.94;5043026;28;19952;-76
2024/01/26 07:55:58;;;;;;;;;;;;;;;20.06;40.20;101650.38;5032315;28;19914;-78
2024/01/26 07:58:24;;;;;;;;;;;;;;;20.06;40.00;101657.63;5030310;28;19920;-76
2024/01/26 08:00:49;;;;;;;;;;;;;;;20.06;40.01;101658.47;5032075;28;19988;-75
2024/01/26 08:03:14;;;;;;;;;;;;;;;20.07;40.18;101664.69;5032144;28;19917;-75
2024/01/26 08:05:39;;;;;;;;;;;;;;;20.06;40.25;101657.63;5042290;28;19917;-75
2024/01/26 08:08:04;;;;;;;;;;;;;;;20.06;40.25;101666.56;5027196;28;20460;-76
2024/01/26 08:10:30;;;;;;;;;;;;;;;20.06;40.12;101666.56;5032084;28;19917;-75
2024/01/26 08:12:55;;;;;;;;;;;;;;;20.07;40.16;101675.50;5040498;28;20014;-75
2024/01/26 08:15:20;;;;;;;;;;;;;;;20.08;40.28;101682.59;5046888;28;19919;-74
2024/01/26 08:17:45;;;;;;;;;;;;;;;20.08;40.51;101669.09;5043669;28;19917;-75
2024/01/26 08:20:11;;;;;;;;;;;;;;;20.09;40.24;101665.38;5040438;28;19943;-76
2024/01/26 08:22:38;;;;;;;;;;;;;;;20.09;40.42;101660.84;5032922;28;19924;-75
2024/01/26 08:25:04;;;;;;;;;;;;;;;20.10;40.43;101662.53;5035341;28;19964;-74
2024/01/26 08:27:29;;;;;;;;;;;;;;;20.12;40.48;101665.06;5041699;28;19913;-76
2024/01/26 08:29:54;;;;;;;;;;;;;;;20.12;39.98;101663.22;5042469;28;19924;-76
2024/01/26 08:32:19;;;;;;;;;;;;;;;20.13;40.21;101650.56;5041560;28;19944;-76
2024/01/26 08:34:44;;;;;;;;;;;;;;;20.14;40.15;101658.50;5042381;28;19917;-76
2024/01/26 08:37:10;;;;;;;;;;;;;;;20.15;40.37;101659.34;5035372;28;19921;-74
2024/01/26 08:39:35;;;;;;;;;;;;;;;20.17;40.36;101649.22;5034212;28;19928;-75
2024/01/26 08:42:01;;;;;;;;;;;;;;;20.18;40.44;101645.56;5043892;28;19975;-75
2024/01/26 08:44:27;;;;;;;;;;;;;;;20.18;40.28;101640.16;5042457;28;20014;-75
2024/01/26 08:46:52;;;;;;;;;;;;;;;20.19;40.47;101648.09;5040923;28;20396;-74
2024/01/26 08:49:17;;;;;;;;;;;;;;;20.21;40.47;101643.34;5038157;28;19917;-75
2024/01/26 08:51:42;;;;;;;;;;;;;;;20.22;40.39;101636.97;5039370;28;19918;-75
2024/01/26 08:54:08;;;;;;;;;;;;;;;20.23;40.46;101644.06;5035499;28;20458;-75
2024/01/26 08:56:33;;;;;;;;;;;;;;;20.25;40.38;101640.34;5036600;28;19925;-72
2024/01/26 08:58:58;;;;;;;;;;;;;;;20.27;40.47;101643.75;5045604;28;19920;-73
2024/01/26 09:01:24;;;;;;;;;;;;;;;20.27;40.49;101641.88;5052968;28;19916;-75
2024/01/26 09:03:49;;;;;;;;;;;;;;;20.29;40.55;101633.63;5034165;28;19913;-74
2024/01/26 09:06:14;;;;;;;;;;;;;;;20.31;40.46;101640.56;5040032;28;19914;-77
2024/01/26 09:08:40;;;;;;;;;;;;;;;20.32;40.52;101641.41;5037534;28;19925;-74
2024/01/26 09:11:05;;;;;;;;;;;;;;;20.33;40.29;101643.09;5036673;28;20015;-73
2024/01/26 09:13:30;;;;;;;;;;;;;;;20.34;40.32;101652.88;5035285;28;19956;-73
2024/01/26 09:15:55;;;;;;;;;;;;;;;20.38;40.77;101659.66;5037441;28;19917;-72
2024/01/26 09:18:21;;;;;;;;;;;;;;;20.41;40.80;101662.03;5044267;28;19939;-69
2024/01/26 09:20:49;;;;;;;;;;;;;;;20.42;40.73;101669.97;5041630;28;19913;-69
2024/01/26 09:23:14;;;;;;;;;;;;;;;20.43;40.62;101676.22;5038553;28;19948;-68
2024/01/26 09:25:39;;;;;;;;;;;;;;;20.45;40.89;101682.34;5047638;28;19924;-70
2024/01/26 09:28:05;;;;;;;;;;;;;;;20.46;40.88;101682.16;5038542;28;19967;-70
2024/01/26 09:30:30;;;;;;;;;;;;;;;20.48;40.70;101676.66;5032397;28;19923;-70
2024/01/26 09:32:55;;;;;;;;;;;;;;;20.50;41.03;101711.59;5036055;28;19985;-70
2024/01/26 09:35:20;;;;;;;;;;;;;;;20.52;41.08;101712.28;5036905;28;19917;-70
2024/01/26 09:37:45;;;;;;;;;;;;;;;20.52;41.00;101767.19;5035542;28;19971;-70
2024/01/26 09:40:12;;;;;;;;;;;;;;;20.54;41.04;101799.44;5035259;28;19925;-69
2024/01/26 09:42:37;;;;;;;;;;;;;;;20.55;40.79;101806.50;5035277;28;19921;-69
2024/01/26 09:45:04;;;;;;;;;;;;;;;20.56;40.99;101840.63;5041622;28;19917;-68
2024/01/26 09:47:29;;;;;;;;;;;;;;;20.57;40.67;101837.78;5035234;28;20332;-68
2024/01/26 09:49:55;;;;;;;;;;;;;;;20.59;40.63;101848.44;5034100;28;19921;-67
2024/01/26 09:52:21;;;;;;;;;;;;;;;20.60;40.25;101874.44;5034087;28;19939;-67
2024/01/26 09:54:47;;;;;;;;;;;;;;;20.62;40.12;101872.44;5040276;28;19949;-67
2024/01/26 09:57:12;;;;;;;;;;;;;;;20.67;39.98;101881.75;5049530;28;19979;-68
2024/01/26 09:59:37;;;;;;;;;;;;;;;20.69;39.85;101901.38;5046903;28;20285;-68
2024/01/26 10:02:03;;;;;;;;;;;;;;;20.71;39.69;101899.38;5035291;28;19927;-67
2024/01/26 10:04:28;;;;;;;;;;;;;;;20.74;39.65;101910.88;5033903;28;19921;-69
2024/01/26 10:06:53;;;;;;;;;;;;;;;20.77;39.37;101897.03;5029857;28;19913;-68
2024/01/26 10:09:18;;;;;;;;;;;;;;;20.78;39.63;101906.88;5033000;28;19925;-68
2024/01/26 10:11:44;;;;;;;;;;;;;;;20.79;39.13;101901.28;5047473;28;19952;-69
2024/01/26 10:14:18;;;;;;;;;;;;;;;20.82;39.03;101887.47;5047465;28;20016;-69
2024/01/26 10:16:52;;;;;;;;;;;;;;;20.83;39.29;101891.84;5033068;28;19925;-68
2024/01/26 10:19:18;;;;;;;;;;;;;;;20.86;39.06;101902.38;5036134;28;19985;-68
2024/01/26 10:21:43;;;;;;;;;;;;;;;20.88;39.19;101899.50;5038929;28;19928;-68
2024/01/26 10:24:08;;;;;;;;;;;;;;;20.92;39.09;101917.09;5040047;28;19909;-68
2024/01/26 10:26:34;;;;;;;;;;;;;;;20.93;38.86;101929.59;5031830;28;19929;-68
2024/01/26 10:28:59;;;;;;;;;;;;;;;20.98;38.74;101940.78;5036647;28;19956;-68
2024/01/26 10:31:25;;;;;;;;;;;;;;;20.99;38.74;101945.22;5039731;28;19913;-70
2024/01/26 10:33:50;;;;;;;;;;;;;;;21.02;38.36;101963.81;5034422;28;20310;-69
2024/01/26 10:36:15;;;;;;;;;;;;;;;21.04;38.60;101960.97;5039938;28;19960;-71
2024/01/26 10:38:41;;;;;;;;;;;;;;;21.04;38.51;101966.38;5043422;28;19948;-70
2024/01/26 10:41:06;;;;;;;;;;;;;;;21.07;37.96;101964.22;5032377;28;19939;-70
2024/01/26 10:43:31;;;;;;;;;;;;;;;21.09;37.97;101982.97;5035713;28;19920;-74
2024/01/26 10:45:57;;;;;;;;;;;;;;;21.12;38.01;101985.38;5034564;28;19981;-77
2024/01/26 10:48:23;;;;;;;;;;;;;;;21.14;37.88;101996.84;5036168;28;19962;-76
2024/01/26 10:50:49;;;;;;;;;;;;;;;21.15;37.85;102012.06;5033071;28;19913;-77
2024/01/26 10:53:14;;;;;;;;;;;;;;;21.17;37.81;102019.03;5028781;28;19913;-73
2024/01/26 10:55:39;;;;;;;;;;;;;;;21.17;37.56;102031.72;5038318;28;19956;-74
2024/01/26 10:58:05;;;;;;;;;;;;;;;21.19;37.49;102033.22;5040003;28;19924;-77
2024/01/26 11:00:30;;;;;;;;;;;;;;;21.22;37.58;102056.44;5035631;28;19972;-77
2024/01/26 11:02:55;;;;;;;;;;;;;;;21.26;37.39;102055.09;5031153;28;19947;-74
2024/01/26 11:05:21;;;;;;;;;;;;;;;21.26;37.01;102065.94;5034411;28;20278;-75
2024/01/26 11:07:47;;;;;;;;;;;;;;;21.29;36.90;102071.03;5049593;28;20330;-76
2024/01/26 11:10:16;;;;;;;;;;;;;;;21.32;36.79;102080.72;5049497;28;19925;-77
2024/01/26 11:12:41;;;;;;;;;;;;;;;21.35;37.08;102077.69;5045210;28;19913;-77
2024/01/26 11:15:08;;;;;;;;;;;;;;;21.37;37.39;102084.66;5042604;28;20610;-76
2024/01/26 11:17:41;;;;;;;;;;;;;;;21.39;37.29;102098.03;5029480;28;20399;-75
2024/01/26 11:20:10;;;;;;;;;;;;;;;21.42;37.29;102095.88;5032689;28;19917;-74
2024/01/26 11:22:35;;;;;;;;;;;;;;;21.43;37.56;102115.66;5038316;28;19913;-73
2024/01/26 11:25:00;;;;;;;;;;;;;;;21.48;37.12;102120.59;5043736;28;19952;-74
2024/01/26 11:27:25;;;;;;;;;;;;;;;21.50;37.14;102122.16;5039050;28;20369;-76
2024/01/26 11:29:51;;;;;;;;;;;;;;;21.55;37.01;102129.78;5032077;28;19932;-75
2024/01/26 11:32:17;;;;;;;;;;;;;;;21.59;36.80;102131.19;5036489;28;19947;-77
2024/01/26 11:34:42;;;;;;;;;;;;;;;21.61;36.88;102137.28;5040694;28;19936;-73
2024/01/26 11:37:14;;;;;;;;;;;;;;;21.64;36.64;102148.63;5038398;28;20305;-74
2024/01/26 11:39:39;;;;;;;;;;;;;;;21.66;36.15;102157.47;5033528;28;19923;-73
2024/01/26 11:42:09;;;;;;;;;;;;;;;21.66;36.35;102176.41;5032420;28;19917;-74
2024/01/26 11:44:37;;;;;;;;;;;;;;;21.69;36.13;102176.06;5029840;28;19979;-75
2024/01/26 11:47:02;;;;;;;;;;;;;;;21.71;36.12;102178.66;5034363;28;19924;-73
2024/01/26 11:49:27;;;;;;;;;;;;;;;21.73;36.30;102190.16;5044161;28;19960;-73
2024/01/26 11:51:53;;;;;;;;;;;;;;;21.76;35.85;102225.03;5038690;28;19917;-72
2024/01/26 11:54:18;;;;;;;;;;;;;;;21.76;35.86;102189.84;5046539;28;19924;-72
2024/01/26 11:56:43;;;;;;;;;;;;;;;21.77;35.58;102198.81;5038136;28;19944;-72
2024/01/26 11:59:08;;;;;;;;;;;;;;;21.79;35.69;102200.38;5037210;28;20282;-72
2024/01/26 12:01:33;;;;;;;;;;;;;;;21.81;35.62;102205.63;5039302;28;19921;-73
2024/01/26 12:04:00;;;;;;;;;;;;;;;21.82;35.83;102229.81;5046125;28;19939;-72
2024/01/26 12:06:25;;;;;;;;;;;;;;;21.84;35.55;102233.25;5044098;28;19924;-72
2024/01/26 12:08:50;;;;;;;;;;;;;;;21.84;35.47;102241.38;5039941;28;20294;-72
2024/01/26 12:11:17;;;;;;;;;;;;;;;21.87;35.16;102246.44;5039537;28;19913;-72
2024/01/26 12:13:43;;;;;;;;;;;;;;;21.88;35.27;102252.75;5035212;28;19917;-71
2024/01/26 12:16:10;;;;;;;;;;;;;;;21.90;35.33;102264.25;5035778;28;19940;-73
2024/01/26 12:18:35;;;;;;;;;;;;;;;21.92;35.04;102270.38;5053727;28;19919;-73
2024/01/26 12:21:00;;;;;;;;;;;;;;;21.92;34.98;102273.94;5051837;28;19948;-73
2024/01/26 12:23:26;;;;;;;;;;;;;;;21.94;35.02;102279.19;5042468;28;19917;-73
2024/01/26 12:25:51;;;;;;;;;;;;;;;21.94;34.61;102284.59;5041985;28;19917;-73